Princeville, Canada
Current Conditions -  °F | °C
As of 8:08 AM on Friday 28 Nov 2014 (Local Time) from CYRQ Reporting Station
Light Snow Light Snow  
Wind Chill: 11°   Ceiling: 3400
Heat Index: 18°   Visibility: 3mi
Dew Point: 14°   Wind: 5mph
Humidity: 86%   Direction: 310°NW
Pressure: 30.07"   Gusts: NA
Location:  46.17°N, 71.88°W
Report Text: CYRQ 281308Z AUTO 31004KT 3SM -SN OVC034 M08/M10 A3007 RMK SLP188
Loading
Personal Weather Stations






























Interactive Weather Map New forecast layout! Learn more

10-Day Weather Forecast

Advertisements
Track Severe Weather on mobile